Time;durP1;ratioP1;P1;durP2;ratioP2;P2;SDS_P1;SDS_P2;PMS_P1;PMS_P2;Temp;Humidity;BMP_temperature;BMP_pressure;BME280_temperature;BME280_humidity;BME280_pressure;Samples;Min_cycle;Max_cycle;Signal;HPM_P1;HPM_P2
2023/02/11 00:01:39;;;;;;;27.30;10.10;;;;;;;-7.61;100.00;100743.80;107801;1274;25576;-74
2023/02/11 00:04:08;;;;;;;25.90;9.80;;;;;;;-7.59;100.00;100749.17;107005;1275;1002972;-75
2023/02/11 00:06:38;;;;;;;21.80;9.20;;;;;;;-7.58;100.00;100750.35;107882;1275;25565;-74
2023/02/11 00:09:09;;;;;;;23.60;10.20;;;;;;;-7.56;100.00;100747.71;107012;1274;1002931;-75
2023/02/11 00:11:38;;;;;;;21.80;8.60;;;;;;;-7.55;100.00;100740.16;107710;1275;25459;-75
2023/02/11 00:14:07;;;;;;;20.60;8.10;;;;;;;-7.56;100.00;100739.47;106814;1275;1002352;-76
2023/02/11 00:16:37;;;;;;;23.20;8.50;;;;;;;-7.60;100.00;100732.91;107080;1275;1002905;-74
2023/02/11 00:19:06;;;;;;;27.50;9.20;;;;;;;-7.65;100.00;100732.33;107026;1274;1003172;-76
2023/02/11 00:21:37;;;;;;;25.50;8.20;;;;;;;-7.69;100.00;100727.19;107754;1275;22545;-76
2023/02/11 00:24:06;;;;;;;22.70;9.30;;;;;;;-7.72;100.00;100721.48;106768;1276;1003061;-75
2023/02/11 00:26:35;;;;;;;19.70;8.80;;;;;;;-7.74;100.00;100718.75;107462;1276;24082;-74
2023/02/11 00:29:04;;;;;;;17.50;7.80;;;;;;;-7.78;100.00;100718.13;107419;1276;26761;-75
2023/02/11 00:31:34;;;;;;;20.60;7.70;;;;;;;-7.82;100.00;100711.57;107443;1276;24444;-75
2023/02/11 00:34:05;;;;;;;16.30;7.70;;;;;;;-7.84;100.00;100711.81;106751;1276;1002921;-75
2023/02/11 00:36:35;;;;;;;20.60;8.50;;;;;;;-7.87;100.00;100717.47;106692;1276;1003639;-74
2023/02/11 00:39:04;;;;;;;20.50;8.10;;;;;;;-7.86;100.00;100725.52;107571;1276;26872;-76
2023/02/11 00:41:34;;;;;;;20.70;8.40;;;;;;;-7.86;100.00;100721.81;106896;1276;1002530;-76
2023/02/11 00:44:03;;;;;;;19.00;8.90;;;;;;;-7.85;100.00;100718.48;106758;1276;1002563;-75
2023/02/11 00:46:33;;;;;;;20.80;8.00;;;;;;;-7.85;100.00;100718.63;107381;1276;25546;-76
2023/02/11 00:49:02;;;;;;;17.50;8.20;;;;;;;-7.86;100.00;100717.09;107443;1276;25589;-76
2023/02/11 00:51:32;;;;;;;22.10;8.90;;;;;;;-7.86;100.00;100718.15;106657;1276;1003456;-76
2023/02/11 00:54:03;;;;;;;19.20;8.90;;;;;;;-7.86;100.00;100715.35;107401;1276;26079;-75
2023/02/11 00:56:33;;;;;;;21.90;8.50;;;;;;;-7.88;100.00;100709.79;107608;1276;26902;-76
2023/02/11 00:59:02;;;;;;;19.10;7.30;;;;;;;-7.88;100.00;100712.25;107523;1276;25605;-75
2023/02/11 01:01:32;;;;;;;19.50;8.10;;;;;;;-7.90;100.00;100715.98;107568;1276;22874;-76
2023/02/11 01:04:01;;;;;;;18.00;7.60;;;;;;;-7.92;100.00;100715.31;106730;1276;1003355;-76
2023/02/11 01:06:30;;;;;;;20.50;8.10;;;;;;;-7.92;100.00;100713.41;107512;1276;25939;-76
2023/02/11 01:08:58;;;;;;;20.20;8.50;;;;;;;-7.94;100.00;100717.66;107533;1276;22569;-76
2023/02/11 01:11:32;;;;;;;25.90;9.00;;;;;;;-7.95;100.00;100713.83;107525;1276;23247;-75
2023/02/11 01:14:02;;;;;;;25.40;10.00;;;;;;;-7.97;100.00;100713.35;107551;1276;24906;-76
2023/02/11 01:16:31;;;;;;;33.30;11.90;;;;;;;-8.01;100.00;100705.39;106789;1276;1003241;-77
2023/02/11 01:18:59;;;;;;;23.00;8.30;;;;;;;-8.04;100.00;100706.34;107616;1276;22798;-77
2023/02/11 01:21:28;;;;;;;21.20;7.90;;;;;;;-8.07;100.00;100708.16;107548;1276;25497;-77
2023/02/11 01:23:57;;;;;;;19.20;8.00;;;;;;;-8.10;100.00;100711.55;107578;1274;24105;-75
2023/02/11 01:26:26;;;;;;;20.10;7.80;;;;;;;-8.12;100.00;100703.90;106812;1274;1002870;-75
2023/02/11 01:28:59;;;;;;;20.80;7.60;;;;;;;-8.14;100.00;100705.35;107651;1275;26995;-77
2023/02/11 01:31:29;;;;;;;16.20;6.70;;;;;;;-8.17;100.00;100711.20;107511;1275;24088;-76
2023/02/11 01:34:00;;;;;;;20.10;8.00;;;;;;;-8.19;100.00;100713.85;107542;1275;24395;-78
2023/02/11 01:36:31;;;;;;;17.40;8.10;;;;;;;-8.23;100.00;100716.58;107680;1275;26953;-75
2023/02/11 01:39:00;;;;;;;18.50;7.40;;;;;;;-8.25;100.00;100710.51;107591;1274;25456;-76
2023/02/11 01:41:30;;;;;;;20.00;7.20;;;;;;;-8.28;100.00;100709.86;107696;1275;25558;-75
2023/02/11 01:44:24;;;;;;;18.30;7.20;;;;;;;-8.29;100.00;100717.43;106839;1275;1002418;-75
2023/02/11 01:46:53;;;;;;;16.90;6.50;;;;;;;-8.31;100.00;100721.30;107700;1275;28135;-74
2023/02/11 01:49:28;;;;;;;16.40;7.20;;;;;;;-8.30;100.00;100725.84;107672;1275;23070;-74
2023/02/11 01:52:21;;;;;;;17.00;6.80;;;;;;;-8.30;100.00;100726.55;107574;1275;22599;-75
2023/02/11 01:57:46;;;;;;;18.30;7.10;;;;;;;-8.33;100.00;100725.03;106931;1275;1003737;-76
2023/02/11 02:00:36;;;;;;;18.30;7.00;;;;;;;-8.33;100.00;100729.92;107688;1275;25453;-77
2023/02/11 02:03:14;;;;;;;16.30;6.60;;;;;;;-8.35;100.00;100735.77;107877;1275;25653;-76
2023/02/11 02:06:25;;;;;;;19.50;7.10;;;;;;;-8.36;100.00;100751.00;108129;1275;25495;-75
2023/02/11 02:09:14;;;;;;;15.40;6.40;;;;;;;-8.38;100.00;100749.29;106605;1275;1003373;-75
2023/02/11 02:11:43;;;;;;;20.50;8.10;;;;;;;-8.43;100.00;100754.11;107661;1275;26815;-75
2023/02/11 02:14:13;;;;;;;18.40;7.80;;;;;;;-8.48;100.00;100759.67;106894;1274;1003618;-74
2023/02/11 02:16:41;;;;;;;18.10;7.10;;;;;;;-8.52;100.00;100761.14;107607;1275;25514;-76
2023/02/11 02:19:16;;;;;;;16.60;5.90;;;;;;;-8.56;100.00;100764.21;107589;1275;25480;-75
2023/02/11 02:21:48;;;;;;;13.50;6.10;;;;;;;-8.63;100.00;100764.35;107585;1275;22490;-77
2023/02/11 02:24:23;;;;;;;14.60;6.30;;;;;;;-8.67;100.00;100769.86;106810;1275;1003429;-76
2023/02/11 02:26:57;;;;;;;16.80;6.70;;;;;;;-8.71;100.00;100773.79;106900;1275;1003396;-76
2023/02/11 02:30:07;;;;;;;18.20;6.90;;;;;;;-8.75;100.00;100774.91;107702;1275;24470;-76
2023/02/11 02:32:44;;;;;;;16.20;6.70;;;;;;;-8.78;100.00;100775.33;107834;1275;24117;-76
2023/02/11 02:35:38;;;;;;;19.40;7.00;;;;;;;-8.79;100.00;100774.46;107659;1275;25470;-75
2023/02/11 02:38:07;;;;;;;15.00;6.10;;;;;;;-8.79;100.00;100773.41;107638;1275;26749;-76
2023/02/11 02:40:42;;;;;;;16.50;7.30;;;;;;;-8.82;100.00;100773.30;107625;1275;24267;-75
2023/02/11 02:43:11;;;;;;;14.50;6.00;;;;;;;-8.84;100.00;100773.52;107631;1275;24019;-76
2023/02/11 02:45:40;;;;;;;16.10;7.00;;;;;;;-8.83;100.00;100775.95;107572;1274;25441;-75
2023/02/11 02:48:27;;;;;;;16.00;6.50;;;;;;;-8.82;100.00;100774.88;106969;1274;1003612;-76
2023/02/11 02:51:19;;;;;;;18.00;7.20;;;;;;;-8.80;100.00;100770.11;107610;1275;25433;-75
2023/02/11 02:54:03;;;;;;;17.80;7.10;;;;;;;-8.78;100.00;100768.86;107628;1275;25973;-75
2023/02/11 02:56:34;;;;;;;16.10;6.80;;;;;;;-8.79;100.00;100762.59;107695;1275;25454;-76
2023/02/11 02:59:17;;;;;;;16.10;6.10;;;;;;;-8.77;100.00;100755.92;107709;1275;25482;-75
2023/02/11 03:01:58;;;;;;;12.90;6.00;;;;;;;-8.76;100.00;100750.81;106889;1275;1002980;-75
2023/02/11 03:04:33;;;;;;;16.40;7.30;;;;;;;-8.75;100.00;100744.68;106877;1275;1003766;-74
2023/02/11 03:07:35;;;;;;;19.00;6.80;;;;;;;-8.75;100.00;100746.77;107637;1275;25488;-75
2023/02/11 03:10:24;;;;;;;;;;;;;;;-8.76;100.00;100752.21;106932;1275;1003178;-77
2023/02/11 03:12:53;;;;;;;15.20;6.90;;;;;;;-8.77;100.00;100753.63;107621;1275;24019;-76
2023/02/11 03:15:23;;;;;;;15.60;6.70;;;;;;;-8.76;100.00;100756.59;107312;1275;25656;-75
2023/02/11 03:17:54;;;;;;;15.90;6.60;;;;;;;-8.77;100.00;100762.89;106943;1275;1003799;-76
2023/02/11 03:20:23;;;;;;;15.20;6.60;;;;;;;-8.76;100.00;100764.80;107691;1275;22638;-76
2023/02/11 03:22:57;;;;;;;15.20;6.00;;;;;;;-8.76;100.00;100762.19;107716;1275;22674;-76
2023/02/11 03:25:28;;;;;;;13.70;6.00;;;;;;;-8.77;100.00;100761.51;107029;1274;1003636;-75
2023/02/11 03:28:18;;;;;;;16.60;6.30;;;;;;;-8.79;100.00;100762.95;107786;1275;22679;-75
2023/02/11 03:31:10;;;;;;;11.20;5.30;;;;;;;-8.82;100.00;100760.90;107642;1275;25732;-75
2023/02/11 03:33:50;;;;;;;19.50;6.90;;;;;;;-8.86;100.00;100762.89;106895;1275;1003238;-77
2023/02/11 03:37:12;;;;;;;18.40;5.90;;;;;;;-8.90;100.00;100762.81;107801;1274;22627;-76
2023/02/11 03:39:46;;;;;;;15.40;6.10;;;;;;;-8.95;100.00;100756.95;106951;1283;25706;-77
2023/02/11 03:42:14;;;;;;;14.00;6.10;;;;;;;-8.98;100.00;100762.09;106980;1283;24479;-74
2023/02/11 03:44:48;;;;;;;16.20;6.50;;;;;;;-9.01;100.00;100765.11;107366;1274;25449;-77
2023/02/11 03:47:19;;;;;;;15.10;6.20;;;;;;;-9.03;100.00;100759.91;107848;1275;23973;-75
2023/02/11 03:49:48;;;;;;;15.10;6.50;;;;;;;-9.04;100.00;100764.30;107691;1275;26730;-76
2023/02/11 03:52:17;;;;;;;15.70;6.30;;;;;;;-9.06;100.00;100768.88;107660;1275;22576;-75
2023/02/11 03:54:48;;;;;;;15.80;6.50;;;;;;;-9.07;100.00;100766.43;107036;1275;1002311;-76
2023/02/11 03:57:16;;;;;;;19.20;7.50;;;;;;;-9.08;100.00;100764.72;106956;1259;1003080;-76
2023/02/11 04:00:04;;;;;;;19.70;7.60;;;;;;;-9.09;100.00;100761.60;107667;1275;26690;-77
2023/02/11 04:02:39;;;;;;;16.70;7.40;;;;;;;-9.10;100.00;100757.61;107008;1275;1002948;-76
2023/02/11 04:05:10;;;;;;;18.50;6.90;;;;;;;-9.13;100.00;100758.20;107703;1275;25458;-76
2023/02/11 04:07:39;;;;;;;19.20;6.60;;;;;;;-9.17;100.00;100750.91;107826;1275;22683;-76
2023/02/11 04:10:08;;;;;;;14.70;6.60;;;;;;;-9.20;100.00;100756.02;107665;1275;23016;-76
2023/02/11 04:12:38;;;;;;;14.10;6.50;;;;;;;-9.23;100.00;100756.25;107007;1275;1003041;-74
2023/02/11 04:15:08;;;;;;;18.50;7.00;;;;;;;-9.26;100.00;100761.04;107828;1275;26959;-75
2023/02/11 04:17:37;;;;;;;18.50;6.90;;;;;;;-9.27;100.00;100759.84;107013;1275;1003046;-74
2023/02/11 04:20:06;;;;;;;20.10;7.60;;;;;;;-9.28;100.00;100765.95;106939;1274;1003278;-75
2023/02/11 04:22:35;;;;;;;20.70;6.70;;;;;;;-9.29;100.00;100766.52;107065;1275;1003525;-75
2023/02/11 04:25:05;;;;;;;15.80;7.00;;;;;;;-9.29;100.00;100770.02;107700;1275;22624;-76
2023/02/11 04:27:34;;;;;;;15.90;6.10;;;;;;;-9.31;100.00;100769.69;107774;1275;22516;-77
2023/02/11 04:30:04;;;;;;;16.30;6.40;;;;;;;-9.34;100.00;100773.23;107789;1274;22565;-76
2023/02/11 04:32:33;;;;;;;16.60;6.40;;;;;;;-9.36;100.00;100776.23;107668;1275;22640;-78
2023/02/11 04:35:02;;;;;;;15.30;5.90;;;;;;;-9.38;100.00;100775.73;107752;1275;23246;-76
2023/02/11 04:37:31;;;;;;;11.40;5.80;;;;;;;-9.38;100.00;100777.32;106963;1274;1003067;-77
2023/02/11 04:40:00;;;;;;;15.80;6.70;;;;;;;-9.37;100.00;100778.17;107886;1275;22993;-76
2023/02/11 04:42:32;;;;;;;12.00;6.30;;;;;;;-9.38;100.00;100775.05;107954;1275;1003284;-74
2023/02/11 04:45:01;;;;;;;10.20;5.60;;;;;;;-9.40;100.00;100772.46;107245;1275;1003336;-76
2023/02/11 04:47:30;;;;;;;15.10;6.70;;;;;;;-9.40;100.00;100769.66;107961;1275;26875;-79
2023/02/11 04:49:59;;;;;;;19.70;7.50;;;;;;;-9.40;100.00;100771.41;107973;1274;26776;-76
2023/02/11 04:52:28;;;;;;;18.00;7.70;;;;;;;-9.43;100.00;100767.63;107868;1274;25475;-77
2023/02/11 04:54:57;;;;;;;21.30;9.20;;;;;;;-9.45;100.00;100769.76;107839;1275;25588;-77
2023/02/11 04:57:26;;;;;;;18.90;9.40;;;;;;;-9.46;100.00;100766.81;107812;1275;24035;-77
2023/02/11 04:59:55;;;;;;;24.10;8.30;;;;;;;-9.45;100.00;100764.67;107747;1275;26876;-76
2023/02/11 05:02:24;;;;;;;16.40;7.50;;;;;;;-9.43;100.00;100766.41;107915;1275;25914;-76
2023/02/11 05:04:53;;;;;;;15.60;6.70;;;;;;;-9.44;100.00;100764.85;107088;1275;1002503;-76
2023/02/11 05:07:22;;;;;;;16.90;6.10;;;;;;;-9.45;100.00;100765.23;106875;1274;1003224;-76
2023/02/11 05:09:51;;;;;;;17.70;7.10;;;;;;;-9.44;100.00;100764.68;106742;1275;1003443;-76
2023/02/11 05:12:21;;;;;;;15.70;6.50;;;;;;;-9.44;100.00;100761.37;107534;1275;25502;-76
2023/02/11 05:14:49;;;;;;;15.60;6.70;;;;;;;-9.45;100.00;100762.41;106821;1251;1002979;-76
2023/02/11 05:17:18;;;;;;;17.10;6.80;;;;;;;-9.43;100.00;100752.62;107454;1275;25545;-76
2023/02/11 05:19:47;;;;;;;15.30;5.90;;;;;;;-9.41;100.00;100751.36;107410;1275;25534;-76
2023/02/11 05:22:18;;;;;;;14.30;6.20;;;;;;;-9.41;100.00;100753.09;107489;1275;26183;-76
2023/02/11 05:24:47;;;;;;;12.60;5.90;;;;;;;-9.41;100.00;100752.40;106676;1275;1002585;-75
2023/02/11 05:27:16;;;;;;;12.70;5.20;;;;;;;-9.41;100.00;100749.60;106762;1275;1003466;-75
2023/02/11 05:29:45;;;;;;;15.70;6.90;;;;;;;-9.40;100.00;100752.55;107423;1275;25662;-75
2023/02/11 05:32:14;;;;;;;16.90;6.70;;;;;;;-9.37;100.00;100755.13;107468;1275;24591;-75
2023/02/11 05:34:43;;;;;;;16.90;6.60;;;;;;;-9.35;100.00;100746.88;107315;1275;26739;-76
2023/02/11 05:37:15;;;;;;;16.20;6.70;;;;;;;-9.33;100.00;100743.36;107407;1275;24282;-75
2023/02/11 05:39:44;;;;;;;12.30;6.20;;;;;;;-9.33;100.00;100748.41;106693;1274;1003568;-75
2023/02/11 05:42:13;;;;;;;17.10;6.50;;;;;;;-9.28;100.00;100742.20;106707;1275;1003023;-76
2023/02/11 05:44:42;;;;;;;15.50;6.40;;;;;;;-9.20;100.00;100742.23;106696;1275;1002965;-76
2023/02/11 05:47:11;;;;;;;16.20;6.90;;;;;;;-9.09;100.00;100738.36;107518;1255;25600;-76
2023/02/11 05:49:40;;;;;;;15.60;6.10;;;;;;;-8.99;100.00;100730.29;107551;1275;25456;-75
2023/02/11 05:52:09;;;;;;;16.30;6.00;;;;;;;-8.92;100.00;100733.67;107531;1275;26009;-76
2023/02/11 05:54:38;;;;;;;18.80;7.30;;;;;;;-8.83;100.00;100732.25;107450;1275;26714;-76
2023/02/11 05:57:07;;;;;;;15.80;6.70;;;;;;;-8.76;100.00;100724.08;107650;1275;25519;-76
2023/02/11 05:59:36;;;;;;;16.20;7.00;;;;;;;-8.67;100.00;100719.52;106794;1275;1002905;-75
2023/02/11 06:02:06;;;;;;;16.50;7.40;;;;;;;-8.61;100.00;100709.23;107539;1268;22585;-77
2023/02/11 06:04:37;;;;;;;17.40;7.50;;;;;;;-8.55;100.00;100699.34;106841;1275;1015925;-75
2023/02/11 06:07:06;;;;;;;18.10;7.00;;;;;;;-8.48;100.00;100697.06;107578;1275;25499;-76
2023/02/11 06:09:35;;;;;;;16.40;7.30;;;;;;;-8.46;100.00;100692.48;107488;1275;26118;-76
2023/02/11 06:12:04;;;;;;;18.80;7.40;;;;;;;-8.49;100.00;100694.65;107525;1274;22547;-76
2023/02/11 06:14:33;;;;;;;18.80;7.90;;;;;;;-8.55;100.00;100695.65;107486;1275;23175;-76
2023/02/11 06:17:02;;;;;;;21.70;8.10;;;;;;;-8.56;100.00;100696.38;106889;1257;1003027;-75
2023/02/11 06:19:36;;;;;;;18.50;7.60;;;;;;;-8.53;100.00;100696.83;107512;1275;26749;-76
2023/02/11 06:22:05;;;;;;;22.80;8.80;;;;;;;-8.46;100.00;100694.41;106784;1275;1002400;-78
2023/02/11 06:24:35;;;;;;;21.00;8.00;;;;;;;-8.36;100.00;100694.16;106815;1274;1003575;-79
2023/02/11 06:27:24;;;;;;;20.80;7.80;;;;;;;-8.27;100.00;100684.30;107666;1275;26904;-77
2023/02/11 06:29:53;;;;;;;23.40;9.60;;;;;;;-8.19;100.00;100684.12;107704;1275;25558;-76
2023/02/11 06:32:21;;;;;;;19.40;7.80;;;;;;;-8.13;100.00;100682.23;106583;1275;1003511;-74
2023/02/11 06:35:10;;;;;;;19.40;7.40;;;;;;;-8.05;100.00;100680.13;107354;1275;24043;-76
2023/02/11 06:37:41;;;;;;;17.40;6.70;;;;;;;-7.98;100.00;100677.67;107865;1275;22702;-77
2023/02/11 06:40:10;;;;;;;19.40;7.40;;;;;;;-7.89;100.00;100677.63;107445;1275;26969;-66
2023/02/11 06:42:40;;;;;;;25.30;7.90;;;;;;;-7.78;100.00;100669.64;106172;1275;1002885;-67
2023/02/11 06:45:09;;;;;;;21.20;8.60;;;;;;;-7.69;100.00;100661.19;106209;1275;1015582;-68
2023/02/11 06:47:40;;;;;;;18.60;7.50;;;;;;;-7.56;100.00;100655.95;107091;1275;26754;-66
2023/02/11 06:50:11;;;;;;;34.30;13.20;;;;;;;-7.47;100.00;100648.67;106317;1275;1002940;-67
2023/02/11 06:52:40;;;;;;;22.70;9.40;;;;;;;-7.35;100.00;100633.98;107102;1275;25698;-65
2023/02/11 06:55:09;;;;;;;24.50;10.30;;;;;;;-7.21;100.00;100625.73;107068;1275;24356;-66
2023/02/11 06:57:41;;;;;;;24.30;9.70;;;;;;;-7.07;100.00;100620.03;106979;1275;26502;-68
2023/02/11 07:00:11;;;;;;;20.70;8.50;;;;;;;-6.98;100.00;100618.05;107123;1274;25349;-67
2023/02/11 07:02:40;;;;;;;22.50;9.80;;;;;;;-6.94;100.00;100617.37;107118;1274;24209;-66
2023/02/11 07:05:08;;;;;;;25.50;9.40;;;;;;;-6.86;100.00;100615.23;107121;1275;22548;-64
2023/02/11 07:07:37;;;;;;;23.80;10.10;;;;;;;-6.76;100.00;100609.29;107168;1268;22707;-67
2023/02/11 07:10:07;;;;;;;22.20;8.60;;;;;;;-6.64;100.00;100611.04;106935;1275;25512;-67
2023/02/11 07:12:40;;;;;;;25.10;9.40;;;;;;;-6.43;100.00;100605.81;107127;1274;25310;-67
2023/02/11 07:15:09;;;;;;;22.70;9.90;;;;;;;-6.24;100.00;100598.69;107069;1274;26796;-64
2023/02/11 07:17:38;;;;;;;28.10;9.80;;;;;;;-6.11;100.00;100594.23;107054;1274;25592;-66
2023/02/11 07:20:11;;;;;;;31.60;11.40;;;;;;;-6.03;100.00;100588.02;106237;1275;1002612;-65
2023/02/11 07:22:40;;;;;;;28.10;11.10;;;;;;;-6.00;100.00;100597.89;107109;1275;22534;-68
2023/02/11 07:25:09;;;;;;;31.50;11.80;;;;;;;-5.89;100.00;100595.38;106335;1274;1002853;-66
2023/02/11 07:27:37;;;;;;;26.60;10.20;;;;;;;-5.74;100.00;100594.35;107169;1266;24356;-66
2023/02/11 07:30:07;;;;;;;22.80;9.90;;;;;;;-5.53;100.00;100580.44;106934;1275;25253;-65
2023/02/11 07:32:35;;;;;;;29.50;11.70;;;;;;;-5.43;100.00;100582.16;106963;1275;25429;-67
2023/02/11 07:35:04;;;;;;;31.70;14.80;;;;;;;-5.31;100.00;100583.84;106401;1275;1003512;-67
2023/02/11 07:37:34;;;;;;;21.50;9.90;;;;;;;-5.12;100.00;100577.00;106269;1275;1003660;-66
2023/02/11 07:40:03;;;;;;;26.60;10.60;;;;;;;-4.94;100.00;100573.13;106403;1275;1002987;-67
2023/02/11 07:42:33;;;;;;;27.30;12.70;;;;;;;-4.86;100.00;100579.84;107381;1275;23875;-63
2023/02/11 07:45:02;;;;;;;24.20;11.10;;;;;;;-4.75;100.00;100582.77;106953;1275;22526;-65
2023/02/11 07:47:34;;;;;;;22.60;10.60;;;;;;;-4.63;100.00;100578.95;107114;1275;23315;-65
2023/02/11 07:50:03;;;;;;;36.20;14.90;;;;;;;-4.52;100.00;100580.48;106853;1275;26516;-69
2023/02/11 07:52:34;;;;;;;27.60;12.30;;;;;;;-4.41;100.00;100585.10;106903;1275;24773;-68
2023/02/11 07:55:05;;;;;;;29.90;14.60;;;;;;;-4.26;100.00;100582.55;106891;1275;25409;-70
2023/02/11 07:57:36;;;;;;;29.00;12.10;;;;;;;-4.08;100.00;100578.48;107057;1275;22662;-68
2023/02/11 08:00:06;;;;;;;21.60;9.60;;;;;;;-3.88;100.00;100573.05;107023;1275;22644;-67
2023/02/11 08:02:38;;;;;;;20.10;8.60;;;;;;;-3.68;100.00;100566.53;106321;1275;1003518;-67
2023/02/11 08:05:07;;;;;;;19.20;9.10;;;;;;;-3.42;100.00;100557.98;106980;1275;25421;-67
2023/02/11 08:07:36;;;;;;;21.80;9.80;;;;;;;-3.28;100.00;100558.21;107100;1275;23645;-68
2023/02/11 08:10:05;;;;;;;20.80;9.30;;;;;;;-3.18;100.00;100573.33;107073;1275;25258;-68
2023/02/11 08:12:34;;;;;;;25.60;10.50;;;;;;;-3.19;100.00;100588.14;107290;1275;25333;-68
2023/02/11 08:15:03;;;;;;;24.70;10.80;;;;;;;-3.14;100.00;100592.66;107094;1275;24232;-68
2023/02/11 08:17:34;;;;;;;26.90;11.80;;;;;;;-3.10;100.00;100601.15;107089;1275;25371;-67
2023/02/11 08:20:04;;;;;;;21.60;9.60;;;;;;;-3.08;100.00;100607.40;107065;1275;22531;-68
2023/02/11 08:22:34;;;;;;;51.00;22.50;;;;;;;-2.96;100.00;100605.42;107014;1275;25375;-68
2023/02/11 08:25:03;;;;;;;36.80;15.50;;;;;;;-2.74;100.00;100594.55;107009;1263;25310;-67
2023/02/11 08:27:33;;;;;;;26.20;12.70;;;;;;;-2.65;100.00;100587.04;106353;1275;1003687;-72
2023/02/11 08:30:02;;;;;;;23.80;11.60;;;;;;;-2.57;100.00;100587.75;107185;1275;25350;-67
2023/02/11 08:32:33;;;;;;;27.70;12.40;;;;;;;-2.46;100.00;100591.64;107081;1275;25434;-69
2023/02/11 08:35:02;;;;;;;25.20;11.90;;;;;;;-2.42;100.00;100600.27;107295;1275;26966;-78
2023/02/11 08:37:33;;;;;;;24.80;11.20;;;;;;;-2.32;100.00;100598.18;107275;1275;26641;-77
2023/02/11 08:40:02;;;;;;;27.80;11.10;;;;;;;-2.11;100.00;100590.80;107315;1275;23936;-75
2023/02/11 08:42:30;;;;;;;22.90;10.30;;;;;;;-1.93;100.00;100586.17;107481;1275;25584;-77
2023/02/11 08:44:59;;;;;;;25.60;11.80;;;;;;;-1.87;100.00;100588.17;107101;1275;25345;-67
2023/02/11 08:47:28;;;;;;;28.80;13.20;;;;;;;-1.95;100.00;100589.61;106309;1275;1003377;-67
2023/02/11 08:49:57;;;;;;;25.60;11.60;;;;;;;-1.85;100.00;100585.26;106220;1275;1003146;-67
2023/02/11 08:52:26;;;;;;;27.00;13.80;;;;;;;-1.75;100.00;100574.98;107142;1273;26510;-68
2023/02/11 08:54:55;;;;;;;25.30;12.30;;;;;;;-1.60;100.00;100571.59;106221;1274;1002945;-67
2023/02/11 08:57:24;;;;;;;25.70;12.80;;;;;;;-1.39;100.00;100556.69;107555;1267;23086;-77
2023/02/11 08:59:53;;;;;;;27.10;11.80;;;;;;;-1.39;100.00;100548.20;106952;1275;1002875;-77
2023/02/11 09:02:22;;;;;;;27.00;13.00;;;;;;;-1.28;100.00;100535.05;107787;1267;25434;-76
2023/02/11 09:04:52;;;;;;;29.20;12.50;;;;;;;-1.16;100.00;100526.04;107223;1273;1005027;-78
2023/02/11 09:07:20;;;;;;;30.90;13.80;;;;;;;-1.30;100.00;100537.27;108044;1267;25318;-76
2023/02/11 09:09:49;;;;;;;28.40;14.30;;;;;;;-1.42;100.00;100540.20;107867;1275;25495;-78
2023/02/11 09:12:17;;;;;;;28.60;12.90;;;;;;;-1.39;100.00;100533.50;107191;1269;1002505;-78
2023/02/11 09:14:46;;;;;;;24.20;12.70;;;;;;;-1.42;100.00;100527.30;107158;1267;1002429;-77
2023/02/11 09:17:15;;;;;;;27.90;13.60;;;;;;;-1.51;100.00;100527.06;106988;1267;1003031;-65
2023/02/11 09:19:44;;;;;;;26.60;12.50;;;;;;;-1.61;100.00;100549.16;106833;1267;22530;-67
2023/02/11 09:22:14;;;;;;;26.60;11.60;;;;;;;-1.64;100.00;100542.45;107113;1267;25263;-67
2023/02/11 09:24:42;;;;;;;28.80;14.40;;;;;;;-1.60;100.00;100533.04;106176;1267;1002939;-66
2023/02/11 09:27:11;;;;;;;26.80;13.50;;;;;;;-1.51;100.00;100530.45;106312;1267;1002880;-67
2023/02/11 09:29:40;;;;;;;24.30;12.40;;;;;;;-1.45;100.00;100517.23;106897;1267;25507;-67
2023/02/11 09:32:08;;;;;;;24.90;11.50;;;;;;;-1.40;100.00;100511.25;106425;1267;1002947;-70
2023/02/11 09:34:37;;;;;;;24.60;11.60;;;;;;;-1.37;100.00;100504.91;106615;1267;1002618;-69
2023/02/11 09:37:06;;;;;;;28.30;12.60;;;;;;;-1.46;100.00;100507.02;106239;1267;1003005;-68
2023/02/11 09:39:35;;;;;;;25.10;11.90;;;;;;;-1.51;100.00;100505.35;106420;1267;1003109;-69
2023/02/11 09:42:35;;;;;;;26.40;11.80;;;;;;;-1.56;100.00;100501.52;107160;1267;22510;-68
2023/02/11 09:45:14;;;;;;;26.40;12.70;;;;;;;-1.53;100.00;100495.89;107191;1270;22554;-77
2023/02/11 09:47:53;;;;;;;27.40;13.50;;;;;;;-1.45;100.00;100485.54;108302;1267;22710;-78
2023/02/11 09:50:41;;;;;;;25.20;11.40;;;;;;;-1.39;100.00;100475.70;108306;1267;22583;-77
2023/02/11 09:53:26;;;;;;;26.80;12.80;;;;;;;-1.47;100.00;100475.23;108051;1267;24159;-76
2023/02/11 09:55:58;;;;;;;27.40;12.80;;;;;;;-1.55;100.00;100473.69;107278;1267;25272;-69
2023/02/11 09:58:28;;;;;;;26.50;12.40;;;;;;;-1.52;100.00;100469.47;106866;1272;24239;-69
2023/02/11 10:01:20;;;;;;;25.70;13.10;;;;;;;-1.51;100.00;100461.67;106303;1267;1002990;-68
2023/02/11 10:04:02;;;;;;;28.20;12.90;;;;;;;-1.59;100.00;100460.85;107072;1267;25438;-70
2023/02/11 10:06:39;;;;;;;27.20;12.80;;;;;;;-1.64;100.00;100453.17;107268;1267;22583;-70
2023/02/11 10:09:14;;;;;;;28.30;12.70;;;;;;;-1.65;100.00;100443.30;106999;1275;22539;-68
2023/02/11 10:12:02;;;;;;;25.70;12.70;;;;;;;-1.68;100.00;100441.39;106297;1275;1003732;-68
2023/02/11 10:14:48;;;;;;;28.30;13.70;;;;;;;-1.76;100.00;100435.75;107119;1275;25315;-69
2023/02/11 10:17:26;;;;;;;29.30;13.90;;;;;;;-1.85;100.00;100437.48;107238;1275;22546;-70
2023/02/11 10:20:14;;;;;;;26.50;12.40;;;;;;;-1.82;100.00;100426.18;107188;1274;25354;-71
2023/02/11 10:22:50;;;;;;;26.50;12.30;;;;;;;-1.83;100.00;100425.91;106310;1275;1003237;-68
2023/02/11 10:25:33;;;;;;;25.20;12.70;;;;;;;-1.89;100.00;100426.94;106180;1270;1003056;-78
2023/02/11 10:28:15;;;;;;;30.00;13.90;;;;;;;-1.89;100.00;100419.13;107905;1276;24323;-77
2023/02/11 10:31:03;;;;;;;26.70;13.00;;;;;;;-1.86;100.00;100411.90;106781;1269;24234;-69
2023/02/11 10:33:35;;;;;;;25.20;12.20;;;;;;;-1.76;100.00;100404.99;106868;1269;22534;-70
2023/02/11 10:36:05;;;;;;;28.10;13.30;;;;;;;-1.67;100.00;100395.20;106810;1271;25461;-69
2023/02/11 10:38:35;;;;;;;27.90;13.10;;;;;;;-1.61;100.00;100390.42;106089;1276;1002862;-68
2023/02/11 10:41:04;;;;;;;27.40;13.00;;;;;;;-1.58;100.00;100386.20;105904;1272;1003829;-69
2023/02/11 10:43:33;;;;;;;27.80;14.00;;;;;;;-1.55;100.00;100383.73;106041;1270;1003601;-68
2023/02/11 10:46:02;;;;;;;31.00;13.50;;;;;;;-1.55;100.00;100381.39;106106;1269;1003306;-68
2023/02/11 10:48:38;;;;;;;28.80;13.90;;;;;;;-1.54;100.00;100376.07;106804;1270;25294;-69
2023/02/11 10:51:09;;;;;;;28.80;13.50;;;;;;;-1.57;100.00;100374.09;106379;1273;1003330;-71
2023/02/11 10:53:42;;;;;;;27.80;13.40;;;;;;;-1.53;100.00;100369.29;106226;1276;1003060;-70
2023/02/11 10:56:26;;;;;;;33.40;15.20;;;;;;;-1.51;100.00;100361.95;106946;1270;22539;-69
2023/02/11 10:58:59;;;;;;;29.10;14.10;;;;;;;-1.56;100.00;100357.92;106165;1274;1003817;-70
2023/02/11 11:01:45;;;;;;;27.60;13.50;;;;;;;-1.55;100.00;100353.80;106242;1276;1002912;-69
2023/02/11 11:04:43;;;;;;;28.00;12.70;;;;;;;-1.45;100.00;100346.39;106165;1276;1003826;-69
2023/02/11 11:07:23;;;;;;;27.50;12.80;;;;;;;-1.39;100.00;100337.55;106089;1276;1003347;-68
2023/02/11 11:09:52;;;;;;;27.90;13.70;;;;;;;-1.39;100.00;100335.45;106960;1276;25203;-70
2023/02/11 11:12:44;;;;;;;27.10;13.70;;;;;;;-1.43;100.00;100336.53;106906;1276;23781;-67
2023/02/11 11:15:13;;;;;;;27.70;13.90;;;;;;;-1.43;100.00;100332.30;106184;1276;1003306;-70
2023/02/11 11:17:44;;;;;;;25.90;12.10;;;;;;;-1.41;100.00;100329.90;106924;1276;25846;-69
2023/02/11 11:20:17;;;;;;;27.10;13.50;;;;;;;-1.42;100.00;100325.54;106911;1276;22520;-69
2023/02/11 11:22:46;;;;;;;;;;;;;;;-1.51;100.00;100323.54;107030;1276;22903;-69